sensor_id;sensor_type;location;lat;lon;timestamp;P1;durP1;ratioP1;P2;durP2;ratioP2
57249;SDS011;43102;52.014;-0.680;2023-07-02T00:00:01;19.20;;;10.50;;
57249;SDS011;43102;52.014;-0.680;2023-07-02T00:01:00;19.20;;;10.50;;
57249;SDS011;43102;52.014;-0.680;2023-07-02T00:02:01;19.20;;;10.50;;
57249;SDS011;43102;52.014;-0.680;2023-07-02T00:03:01;19.20;;;10.50;;
57249;SDS011;43102;52.014;-0.680;2023-07-02T00:04:01;19.20;;;10.50;;
57249;SDS011;43102;52.014;-0.680;2023-07-02T00:05:00;19.20;;;10.50;;
57249;SDS011;43102;52.014;-0.680;2023-07-02T00:06:00;19.20;;;10.50;;
57249;SDS011;43102;52.014;-0.680;2023-07-02T00:07:00;19.20;;;10.50;;
57249;SDS011;43102;52.014;-0.680;2023-07-02T00:08:00;19.20;;;10.50;;
57249;SDS011;43102;52.014;-0.680;2023-07-02T00:09:00;19.20;;;10.50;;
57249;SDS011;43102;52.014;-0.680;2023-07-02T00:10:00;19.20;;;10.50;;
57249;SDS011;43102;52.014;-0.680;2023-07-02T00:11:01;19.20;;;10.50;;
57249;SDS011;43102;52.014;-0.680;2023-07-02T00:12:00;19.20;;;10.50;;
57249;SDS011;43102;52.014;-0.680;2023-07-02T00:13:00;19.20;;;10.50;;
57249;SDS011;43102;52.014;-0.680;2023-07-02T00:14:00;19.20;;;10.50;;
57249;SDS011;43102;52.014;-0.680;2023-07-02T00:15:01;19.20;;;10.50;;
57249;SDS011;43102;52.014;-0.680;2023-07-02T00:16:00;19.20;;;10.50;;
57249;SDS011;43102;52.014;-0.680;2023-07-02T00:17:01;19.20;;;10.50;;
57249;SDS011;43102;52.014;-0.680;2023-07-02T00:18:01;19.20;;;10.50;;
57249;SDS011;43102;52.014;-0.680;2023-07-02T00:19:00;19.20;;;10.50;;
57249;SDS011;43102;52.014;-0.680;2023-07-02T00:20:08;19.20;;;10.50;;
57249;SDS011;43102;52.014;-0.680;2023-07-02T00:21:02;19.20;;;10.50;;
57249;SDS011;43102;52.014;-0.680;2023-07-02T00:22:00;19.20;;;10.50;;
57249;SDS011;43102;52.014;-0.680;2023-07-02T00:23:01;19.60;;;10.20;;
57249;SDS011;43102;52.014;-0.680;2023-07-02T00:24:00;19.60;;;10.20;;
57249;SDS011;43102;52.014;-0.680;2023-07-02T00:25:00;19.60;;;10.20;;
57249;SDS011;43102;52.014;-0.680;2023-07-02T00:26:00;19.60;;;10.20;;
57249;SDS011;43102;52.014;-0.680;2023-07-02T00:27:00;19.60;;;10.20;;
57249;SDS011;43102;52.014;-0.680;2023-07-02T00:28:00;19.60;;;10.20;;
57249;SDS011;43102;52.014;-0.680;2023-07-02T00:29:00;19.60;;;10.20;;
57249;SDS011;43102;52.014;-0.680;2023-07-02T00:30:00;19.60;;;10.20;;
57249;SDS011;43102;52.014;-0.680;2023-07-02T00:31:02;19.60;;;10.20;;
57249;SDS011;43102;52.014;-0.680;2023-07-02T00:32:00;19.60;;;10.20;;
57249;SDS011;43102;52.014;-0.680;2023-07-02T00:33:00;19.60;;;10.20;;
57249;SDS011;43102;52.014;-0.680;2023-07-02T00:34:01;19.60;;;10.20;;
57249;SDS011;43102;52.014;-0.680;2023-07-02T00:35:00;19.60;;;10.20;;
57249;SDS011;43102;52.014;-0.680;2023-07-02T00:36:00;19.60;;;10.20;;
57249;SDS011;43102;52.014;-0.680;2023-07-02T00:37:00;19.60;;;10.20;;
57249;SDS011;43102;52.014;-0.680;2023-07-02T00:38:00;19.60;;;10.20;;
57249;SDS011;43102;52.014;-0.680;2023-07-02T00:39:00;19.60;;;10.20;;
57249;SDS011;43102;52.014;-0.680;2023-07-02T00:40:02;19.60;;;10.20;;
57249;SDS011;43102;52.014;-0.680;2023-07-02T00:41:00;19.60;;;10.20;;
57249;SDS011;43102;52.014;-0.680;2023-07-02T00:42:02;19.60;;;10.20;;
57249;SDS011;43102;52.014;-0.680;2023-07-02T00:43:00;19.60;;;10.20;;
57249;SDS011;43102;52.014;-0.680;2023-07-02T00:44:00;19.60;;;10.20;;
57249;SDS011;43102;52.014;-0.680;2023-07-02T00:45:04;19.60;;;10.20;;
57249;SDS011;43102;52.014;-0.680;2023-07-02T00:46:01;19.60;;;10.20;;
57249;SDS011;43102;52.014;-0.680;2023-07-02T00:47:01;19.60;;;10.20;;
57249;SDS011;43102;52.014;-0.680;2023-07-02T00:48:00;19.60;;;10.20;;
57249;SDS011;43102;52.014;-0.680;2023-07-02T00:49:04;19.60;;;10.20;;
57249;SDS011;43102;52.014;-0.680;2023-07-02T00:50:02;19.60;;;10.20;;
57249;SDS011;43102;52.014;-0.680;2023-07-02T00:51:00;19.60;;;10.20;;
57249;SDS011;43102;52.014;-0.680;2023-07-02T00:52:00;19.60;;;10.20;;
57249;SDS011;43102;52.014;-0.680;2023-07-02T00:53:00;18.30;;;10.90;;
57249;SDS011;43102;52.014;-0.680;2023-07-02T00:54:01;18.30;;;10.90;;
57249;SDS011;43102;52.014;-0.680;2023-07-02T00:55:01;18.30;;;10.90;;
57249;SDS011;43102;52.014;-0.680;2023-07-02T00:56:01;18.30;;;10.90;;
57249;SDS011;43102;52.014;-0.680;2023-07-02T00:57:03;18.30;;;10.90;;
57249;SDS011;43102;52.014;-0.680;2023-07-02T00:58:01;18.30;;;10.90;;
57249;SDS011;43102;52.014;-0.680;2023-07-02T00:59:00;18.30;;;10.90;;
57249;SDS011;43102;52.014;-0.680;2023-07-02T01:00:01;18.30;;;10.90;;
57249;SDS011;43102;52.014;-0.680;2023-07-02T01:01:00;18.30;;;10.90;;
57249;SDS011;43102;52.014;-0.680;2023-07-02T01:02:00;18.30;;;10.90;;
57249;SDS011;43102;52.014;-0.680;2023-07-02T01:03:01;18.30;;;10.90;;
57249;SDS011;43102;52.014;-0.680;2023-07-02T01:04:02;18.30;;;10.90;;
57249;SDS011;43102;52.014;-0.680;2023-07-02T01:05:02;18.30;;;10.90;;
57249;SDS011;43102;52.014;-0.680;2023-07-02T01:06:03;18.30;;;10.90;;
57249;SDS011;43102;52.014;-0.680;2023-07-02T01:07:01;18.30;;;10.90;;
57249;SDS011;43102;52.014;-0.680;2023-07-02T01:08:03;18.30;;;10.90;;
57249;SDS011;43102;52.014;-0.680;2023-07-02T01:09:03;18.30;;;10.90;;
57249;SDS011;43102;52.014;-0.680;2023-07-02T01:10:00;18.30;;;10.90;;
57249;SDS011;43102;52.014;-0.680;2023-07-02T01:11:00;18.30;;;10.90;;
57249;SDS011;43102;52.014;-0.680;2023-07-02T01:12:04;18.30;;;10.90;;
57249;SDS011;43102;52.014;-0.680;2023-07-02T01:13:04;18.30;;;10.90;;
57249;SDS011;43102;52.014;-0.680;2023-07-02T01:14:04;18.30;;;10.90;;
57249;SDS011;43102;52.014;-0.680;2023-07-02T01:15:03;18.30;;;10.90;;
57249;SDS011;43102;52.014;-0.680;2023-07-02T01:16:01;18.30;;;10.90;;
57249;SDS011;43102;52.014;-0.680;2023-07-02T01:17:05;18.30;;;10.90;;
57249;SDS011;43102;52.014;-0.680;2023-07-02T01:18:01;18.30;;;10.90;;
57249;SDS011;43102;52.014;-0.680;2023-07-02T01:19:04;18.30;;;10.90;;
57249;SDS011;43102;52.014;-0.680;2023-07-02T01:20:01;18.30;;;10.90;;
57249;SDS011;43102;52.014;-0.680;2023-07-02T01:21:01;18.30;;;10.90;;
57249;SDS011;43102;52.014;-0.680;2023-07-02T01:22:01;18.30;;;10.90;;
57249;SDS011;43102;52.014;-0.680;2023-07-02T01:23:03;23.20;;;10.60;;
57249;SDS011;43102;52.014;-0.680;2023-07-02T01:24:01;23.20;;;10.60;;
57249;SDS011;43102;52.014;-0.680;2023-07-02T01:25:01;23.20;;;10.60;;
57249;SDS011;43102;52.014;-0.680;2023-07-02T01:26:01;23.20;;;10.60;;
57249;SDS011;43102;52.014;-0.680;2023-07-02T01:27:01;23.20;;;10.60;;
57249;SDS011;43102;52.014;-0.680;2023-07-02T01:28:00;23.20;;;10.60;;
57249;SDS011;43102;52.014;-0.680;2023-07-02T01:29:14;23.20;;;10.60;;
57249;SDS011;43102;52.014;-0.680;2023-07-02T01:30:00;23.20;;;10.60;;
57249;SDS011;43102;52.014;-0.680;2023-07-02T01:31:01;23.20;;;10.60;;
57249;SDS011;43102;52.014;-0.680;2023-07-02T01:32:00;23.20;;;10.60;;
57249;SDS011;43102;52.014;-0.680;2023-07-02T01:33:00;23.20;;;10.60;;
57249;SDS011;43102;52.014;-0.680;2023-07-02T01:34:00;23.20;;;10.60;;
57249;SDS011;43102;52.014;-0.680;2023-07-02T01:35:01;23.20;;;10.60;;
57249;SDS011;43102;52.014;-0.680;2023-07-02T01:36:00;23.20;;;10.60;;
57249;SDS011;43102;52.014;-0.680;2023-07-02T01:37:01;23.20;;;10.60;;
57249;SDS011;43102;52.014;-0.680;2023-07-02T01:38:00;23.20;;;10.60;;
57249;SDS011;43102;52.014;-0.680;2023-07-02T01:39:00;23.20;;;10.60;;
57249;SDS011;43102;52.014;-0.680;2023-07-02T01:40:00;23.20;;;10.60;;
57249;SDS011;43102;52.014;-0.680;2023-07-02T01:41:00;23.20;;;10.60;;
57249;SDS011;43102;52.014;-0.680;2023-07-02T01:42:10;23.20;;;10.60;;
57249;SDS011;43102;52.014;-0.680;2023-07-02T01:43:00;23.20;;;10.60;;
57249;SDS011;43102;52.014;-0.680;2023-07-02T01:44:00;23.20;;;10.60;;
57249;SDS011;43102;52.014;-0.680;2023-07-02T01:45:00;23.20;;;10.60;;
57249;SDS011;43102;52.014;-0.680;2023-07-02T01:46:01;23.20;;;10.60;;
57249;SDS011;43102;52.014;-0.680;2023-07-02T01:47:00;23.20;;;10.60;;
57249;SDS011;43102;52.014;-0.680;2023-07-02T01:48:00;23.20;;;10.60;;
57249;SDS011;43102;52.014;-0.680;2023-07-02T01:49:00;23.20;;;10.60;;
57249;SDS011;43102;52.014;-0.680;2023-07-02T01:50:03;23.20;;;10.60;;
57249;SDS011;43102;52.014;-0.680;2023-07-02T01:51:00;23.20;;;10.60;;
57249;SDS011;43102;52.014;-0.680;2023-07-02T01:52:00;23.20;;;10.60;;
57249;SDS011;43102;52.014;-0.680;2023-07-02T01:53:00;18.90;;;9.40;;
57249;SDS011;43102;52.014;-0.680;2023-07-02T01:54:01;18.90;;;9.40;;
57249;SDS011;43102;52.014;-0.680;2023-07-02T01:55:01;18.90;;;9.40;;
57249;SDS011;43102;52.014;-0.680;2023-07-02T01:56:00;18.90;;;9.40;;
57249;SDS011;43102;52.014;-0.680;2023-07-02T01:57:00;18.90;;;9.40;;
57249;SDS011;43102;52.014;-0.680;2023-07-02T01:58:00;18.90;;;9.40;;
57249;SDS011;43102;52.014;-0.680;2023-07-02T01:59:01;18.90;;;9.40;;
57249;SDS011;43102;52.014;-0.680;2023-07-02T02:00:00;18.90;;;9.40;;
57249;SDS011;43102;52.014;-0.680;2023-07-02T02:01:00;18.90;;;9.40;;
57249;SDS011;43102;52.014;-0.680;2023-07-02T02:02:01;18.90;;;9.40;;
57249;SDS011;43102;52.014;-0.680;2023-07-02T02:03:01;18.90;;;9.40;;
57249;SDS011;43102;52.014;-0.680;2023-07-02T02:04:00;18.90;;;9.40;;
57249;SDS011;43102;52.014;-0.680;2023-07-02T02:05:00;18.90;;;9.40;;
57249;SDS011;43102;52.014;-0.680;2023-07-02T02:06:00;18.90;;;9.40;;
57249;SDS011;43102;52.014;-0.680;2023-07-02T02:07:00;18.90;;;9.40;;
57249;SDS011;43102;52.014;-0.680;2023-07-02T02:08:00;18.90;;;9.40;;
57249;SDS011;43102;52.014;-0.680;2023-07-02T02:09:03;18.90;;;9.40;;
57249;SDS011;43102;52.014;-0.680;2023-07-02T02:10:00;18.90;;;9.40;;
57249;SDS011;43102;52.014;-0.680;2023-07-02T02:11:00;18.90;;;9.40;;
57249;SDS011;43102;52.014;-0.680;2023-07-02T02:12:00;18.90;;;9.40;;
57249;SDS011;43102;52.014;-0.680;2023-07-02T02:13:00;18.90;;;9.40;;
57249;SDS011;43102;52.014;-0.680;2023-07-02T02:14:01;18.90;;;9.40;;
57249;SDS011;43102;52.014;-0.680;2023-07-02T02:15:00;18.90;;;9.40;;
57249;SDS011;43102;52.014;-0.680;2023-07-02T02:16:01;18.90;;;9.40;;
57249;SDS011;43102;52.014;-0.680;2023-07-02T02:17:01;18.90;;;9.40;;
57249;SDS011;43102;52.014;-0.680;2023-07-02T02:18:00;18.90;;;9.40;;
57249;SDS011;43102;52.014;-0.680;2023-07-02T02:19:01;18.90;;;9.40;;
57249;SDS011;43102;52.014;-0.680;2023-07-02T02:20:00;18.90;;;9.40;;
57249;SDS011;43102;52.014;-0.680;2023-07-02T02:21:00;18.90;;;9.40;;
57249;SDS011;43102;52.014;-0.680;2023-07-02T02:22:00;18.90;;;9.40;;
57249;SDS011;43102;52.014;-0.680;2023-07-02T02:23:00;18.90;;;9.80;;
57249;SDS011;43102;52.014;-0.680;2023-07-02T02:24:00;18.90;;;9.80;;
57249;SDS011;43102;52.014;-0.680;2023-07-02T02:25:00;18.90;;;9.80;;
57249;SDS011;43102;52.014;-0.680;2023-07-02T02:26:00;18.90;;;9.80;;
57249;SDS011;43102;52.014;-0.680;2023-07-02T02:27:00;18.90;;;9.80;;
57249;SDS011;43102;52.014;-0.680;2023-07-02T02:28:00;18.90;;;9.80;;
57249;SDS011;43102;52.014;-0.680;2023-07-02T02:29:01;18.90;;;9.80;;
57249;SDS011;43102;52.014;-0.680;2023-07-02T02:30:00;18.90;;;9.80;;
57249;SDS011;43102;52.014;-0.680;2023-07-02T02:31:00;18.90;;;9.80;;
57249;SDS011;43102;52.014;-0.680;2023-07-02T02:32:00;18.90;;;9.80;;
57249;SDS011;43102;52.014;-0.680;2023-07-02T02:33:00;18.90;;;9.80;;
57249;SDS011;43102;52.014;-0.680;2023-07-02T02:34:00;18.90;;;9.80;;
57249;SDS011;43102;52.014;-0.680;2023-07-02T02:35:00;18.90;;;9.80;;
57249;SDS011;43102;52.014;-0.680;2023-07-02T02:36:01;18.90;;;9.80;;
57249;SDS011;43102;52.014;-0.680;2023-07-02T02:37:00;18.90;;;9.80;;
57249;SDS011;43102;52.014;-0.680;2023-07-02T02:38:02;18.90;;;9.80;;
57249;SDS011;43102;52.014;-0.680;2023-07-02T02:39:00;18.90;;;9.80;;
57249;SDS011;43102;52.014;-0.680;2023-07-02T02:40:00;18.90;;;9.80;;
57249;SDS011;43102;52.014;-0.680;2023-07-02T02:41:02;18.90;;;9.80;;
57249;SDS011;43102;52.014;-0.680;2023-07-02T02:42:00;18.90;;;9.80;;
57249;SDS011;43102;52.014;-0.680;2023-07-02T02:43:00;18.90;;;9.80;;
57249;SDS011;43102;52.014;-0.680;2023-07-02T02:44:00;18.90;;;9.80;;
57249;SDS011;43102;52.014;-0.680;2023-07-02T02:45:00;18.90;;;9.80;;
57249;SDS011;43102;52.014;-0.680;2023-07-02T02:46:00;18.90;;;9.80;;
57249;SDS011;43102;52.014;-0.680;2023-07-02T02:47:01;18.90;;;9.80;;
57249;SDS011;43102;52.014;-0.680;2023-07-02T02:48:00;18.90;;;9.80;;
57249;SDS011;43102;52.014;-0.680;2023-07-02T02:49:00;18.90;;;9.80;;
57249;SDS011;43102;52.014;-0.680;2023-07-02T02:50:00;18.90;;;9.80;;
57249;SDS011;43102;52.014;-0.680;2023-07-02T02:51:00;18.90;;;9.80;;
57249;SDS011;43102;52.014;-0.680;2023-07-02T02:52:00;18.90;;;9.80;;
57249;SDS011;43102;52.014;-0.680;2023-07-02T02:53:00;17.00;;;10.20;;
57249;SDS011;43102;52.014;-0.680;2023-07-02T02:54:00;17.00;;;10.20;;
57249;SDS011;43102;52.014;-0.680;2023-07-02T02:55:00;17.00;;;10.20;;
57249;SDS011;43102;52.014;-0.680;2023-07-02T02:56:00;17.00;;;10.20;;
57249;SDS011;43102;52.014;-0.680;2023-07-02T02:57:00;17.00;;;10.20;;
57249;SDS011;43102;52.014;-0.680;2023-07-02T02:58:00;17.00;;;10.20;;
57249;SDS011;43102;52.014;-0.680;2023-07-02T02:59:01;17.00;;;10.20;;
57249;SDS011;43102;52.014;-0.680;2023-07-02T03:00:00;17.00;;;10.20;;
57249;SDS011;43102;52.014;-0.680;2023-07-02T03:01:00;17.00;;;10.20;;
57249;SDS011;43102;52.014;-0.680;2023-07-02T03:02:01;17.00;;;10.20;;
57249;SDS011;43102;52.014;-0.680;2023-07-02T03:03:01;17.00;;;10.20;;
57249;SDS011;43102;52.014;-0.680;2023-07-02T03:04:00;17.00;;;10.20;;
57249;SDS011;43102;52.014;-0.680;2023-07-02T03:05:02;17.00;;;10.20;;
57249;SDS011;43102;52.014;-0.680;2023-07-02T03:06:01;17.00;;;10.20;;
57249;SDS011;43102;52.014;-0.680;2023-07-02T03:07:00;17.00;;;10.20;;
57249;SDS011;43102;52.014;-0.680;2023-07-02T03:08:00;17.00;;;10.20;;
57249;SDS011;43102;52.014;-0.680;2023-07-02T03:09:00;17.00;;;10.20;;
57249;SDS011;43102;52.014;-0.680;2023-07-02T03:10:01;17.00;;;10.20;;
57249;SDS011;43102;52.014;-0.680;2023-07-02T03:11:00;17.00;;;10.20;;
57249;SDS011;43102;52.014;-0.680;2023-07-02T03:12:00;17.00;;;10.20;;
57249;SDS011;43102;52.014;-0.680;2023-07-02T03:13:00;17.00;;;10.20;;
57249;SDS011;43102;52.014;-0.680;2023-07-02T03:14:00;17.00;;;10.20;;
57249;SDS011;43102;52.014;-0.680;2023-07-02T03:15:00;17.00;;;10.20;;
57249;SDS011;43102;52.014;-0.680;2023-07-02T03:16:00;17.00;;;10.20;;
57249;SDS011;43102;52.014;-0.680;2023-07-02T03:17:01;17.00;;;10.20;;
57249;SDS011;43102;52.014;-0.680;2023-07-02T03:18:00;17.00;;;10.20;;
57249;SDS011;43102;52.014;-0.680;2023-07-02T03:19:00;17.00;;;10.20;;
57249;SDS011;43102;52.014;-0.680;2023-07-02T03:20:00;17.00;;;10.20;;
57249;SDS011;43102;52.014;-0.680;2023-07-02T03:21:00;17.00;;;10.20;;
57249;SDS011;43102;52.014;-0.680;2023-07-02T03:22:00;17.00;;;10.20;;
57249;SDS011;43102;52.014;-0.680;2023-07-02T03:23:01;19.90;;;10.10;;
57249;SDS011;43102;52.014;-0.680;2023-07-02T03:24:00;19.90;;;10.10;;
57249;SDS011;43102;52.014;-0.680;2023-07-02T03:25:00;19.90;;;10.10;;
57249;SDS011;43102;52.014;-0.680;2023-07-02T03:26:00;19.90;;;10.10;;
57249;SDS011;43102;52.014;-0.680;2023-07-02T03:27:00;19.90;;;10.10;;
57249;SDS011;43102;52.014;-0.680;2023-07-02T03:28:00;19.90;;;10.10;;
57249;SDS011;43102;52.014;-0.680;2023-07-02T03:29:00;19.90;;;10.10;;
57249;SDS011;43102;52.014;-0.680;2023-07-02T03:30:00;19.90;;;10.10;;
57249;SDS011;43102;52.014;-0.680;2023-07-02T03:31:00;19.90;;;10.10;;
57249;SDS011;43102;52.014;-0.680;2023-07-02T03:32:01;19.90;;;10.10;;
57249;SDS011;43102;52.014;-0.680;2023-07-02T03:33:00;19.90;;;10.10;;
57249;SDS011;43102;52.014;-0.680;2023-07-02T03:34:06;19.90;;;10.10;;
57249;SDS011;43102;52.014;-0.680;2023-07-02T03:35:01;19.90;;;10.10;;
57249;SDS011;43102;52.014;-0.680;2023-07-02T03:36:01;19.90;;;10.10;;
57249;SDS011;43102;52.014;-0.680;2023-07-02T03:37:00;19.90;;;10.10;;
57249;SDS011;43102;52.014;-0.680;2023-07-02T03:38:02;19.90;;;10.10;;
57249;SDS011;43102;52.014;-0.680;2023-07-02T03:39:00;19.90;;;10.10;;
57249;SDS011;43102;52.014;-0.680;2023-07-02T03:40:00;19.90;;;10.10;;
57249;SDS011;43102;52.014;-0.680;2023-07-02T03:41:00;19.90;;;10.10;;
57249;SDS011;43102;52.014;-0.680;2023-07-02T03:42:00;19.90;;;10.10;;
57249;SDS011;43102;52.014;-0.680;2023-07-02T03:43:00;19.90;;;10.10;;
57249;SDS011;43102;52.014;-0.680;2023-07-02T03:44:00;19.90;;;10.10;;
57249;SDS011;43102;52.014;-0.680;2023-07-02T03:45:00;19.90;;;10.10;;
57249;SDS011;43102;52.014;-0.680;2023-07-02T03:46:00;19.90;;;10.10;;
57249;SDS011;43102;52.014;-0.680;2023-07-02T03:47:00;19.90;;;10.10;;
57249;SDS011;43102;52.014;-0.680;2023-07-02T03:48:00;19.90;;;10.10;;
57249;SDS011;43102;52.014;-0.680;2023-07-02T03:49:02;19.90;;;10.10;;
57249;SDS011;43102;52.014;-0.680;2023-07-02T03:50:01;19.90;;;10.10;;
57249;SDS011;43102;52.014;-0.680;2023-07-02T03:51:02;19.90;;;10.10;;
57249;SDS011;43102;52.014;-0.680;2023-07-02T03:52:00;19.90;;;10.10;;
57249;SDS011;43102;52.014;-0.680;2023-07-02T03:53:00;17.30;;;9.20;;
57249;SDS011;43102;52.014;-0.680;2023-07-02T03:54:01;17.30;;;9.20;;
57249;SDS011;43102;52.014;-0.680;2023-07-02T03:55:00;17.30;;;9.20;;
57249;SDS011;43102;52.014;-0.680;2023-07-02T03:56:00;17.30;;;9.20;;
57249;SDS011;43102;52.014;-0.680;2023-07-02T03:57:00;17.30;;;9.20;;
57249;SDS011;43102;52.014;-0.680;2023-07-02T03:58:00;17.30;;;9.20;;
57249;SDS011;43102;52.014;-0.680;2023-07-02T03:59:00;17.30;;;9.20;;
57249;SDS011;43102;52.014;-0.680;2023-07-02T04:00:00;17.30;;;9.20;;
57249;SDS011;43102;52.014;-0.680;2023-07-02T04:01:01;17.30;;;9.20;;
57249;SDS011;43102;52.014;-0.680;2023-07-02T04:02:01;17.30;;;9.20;;
57249;SDS011;43102;52.014;-0.680;2023-07-02T04:03:02;17.30;;;9.20;;
57249;SDS011;43102;52.014;-0.680;2023-07-02T04:04:00;17.30;;;9.20;;
57249;SDS011;43102;52.014;-0.680;2023-07-02T04:05:01;17.30;;;9.20;;
57249;SDS011;43102;52.014;-0.680;2023-07-02T04:06:00;17.30;;;9.20;;
57249;SDS011;43102;52.014;-0.680;2023-07-02T04:07:01;17.30;;;9.20;;
57249;SDS011;43102;52.014;-0.680;2023-07-02T04:08:00;17.30;;;9.20;;
57249;SDS011;43102;52.014;-0.680;2023-07-02T04:09:00;17.30;;;9.20;;
57249;SDS011;43102;52.014;-0.680;2023-07-02T04:10:00;17.30;;;9.20;;
57249;SDS011;43102;52.014;-0.680;2023-07-02T04:11:00;17.30;;;9.20;;
57249;SDS011;43102;52.014;-0.680;2023-07-02T04:12:01;17.30;;;9.20;;
57249;SDS011;43102;52.014;-0.680;2023-07-02T04:13:00;17.30;;;9.20;;
57249;SDS011;43102;52.014;-0.680;2023-07-02T04:14:00;17.30;;;9.20;;
57249;SDS011;43102;52.014;-0.680;2023-07-02T04:15:01;17.30;;;9.20;;
57249;SDS011;43102;52.014;-0.680;2023-07-02T04:16:00;17.30;;;9.20;;
57249;SDS011;43102;52.014;-0.680;2023-07-02T04:17:03;17.30;;;9.20;;
57249;SDS011;43102;52.014;-0.680;2023-07-02T04:18:01;17.30;;;9.20;;
57249;SDS011;43102;52.014;-0.680;2023-07-02T04:19:00;17.30;;;9.20;;
57249;SDS011;43102;52.014;-0.680;2023-07-02T04:20:03;17.30;;;9.20;;
57249;SDS011;43102;52.014;-0.680;2023-07-02T04:21:01;17.30;;;9.20;;
57249;SDS011;43102;52.014;-0.680;2023-07-02T04:22:00;17.30;;;9.20;;
57249;SDS011;43102;52.014;-0.680;2023-07-02T04:23:00;18.90;;;9.20;;
57249;SDS011;43102;52.014;-0.680;2023-07-02T04:24:01;18.90;;;9.20;;
57249;SDS011;43102;52.014;-0.680;2023-07-02T04:25:11;18.90;;;9.20;;
57249;SDS011;43102;52.014;-0.680;2023-07-02T04:26:11;18.90;;;9.20;;
57249;SDS011;43102;52.014;-0.680;2023-07-02T04:27:11;18.90;;;9.20;;
57249;SDS011;43102;52.014;-0.680;2023-07-02T04:28:00;18.90;;;9.20;;
57249;SDS011;43102;52.014;-0.680;2023-07-02T04:29:00;18.90;;;9.20;;
57249;SDS011;43102;52.014;-0.680;2023-07-02T04:30:00;18.90;;;9.20;;
57249;SDS011;43102;52.014;-0.680;2023-07-02T04:31:00;18.90;;;9.20;;
57249;SDS011;43102;52.014;-0.680;2023-07-02T04:32:00;18.90;;;9.20;;
57249;SDS011;43102;52.014;-0.680;2023-07-02T04:33:01;18.90;;;9.20;;
57249;SDS011;43102;52.014;-0.680;2023-07-02T04:34:00;18.90;;;9.20;;
57249;SDS011;43102;52.014;-0.680;2023-07-02T04:35:00;18.90;;;9.20;;
57249;SDS011;43102;52.014;-0.680;2023-07-02T04:36:02;18.90;;;9.20;;
57249;SDS011;43102;52.014;-0.680;2023-07-02T04:37:00;18.90;;;9.20;;
57249;SDS011;43102;52.014;-0.680;2023-07-02T04:38:01;18.90;;;9.20;;
57249;SDS011;43102;52.014;-0.680;2023-07-02T04:39:00;18.90;;;9.20;;
57249;SDS011;43102;52.014;-0.680;2023-07-02T04:40:01;18.90;;;9.20;;
57249;SDS011;43102;52.014;-0.680;2023-07-02T04:41:05;18.90;;;9.20;;
57249;SDS011;43102;52.014;-0.680;2023-07-02T04:42:00;18.90;;;9.20;;
57249;SDS011;43102;52.014;-0.680;2023-07-02T04:43:00;18.90;;;9.20;;
57249;SDS011;43102;52.014;-0.680;2023-07-02T04:44:01;18.90;;;9.20;;
57249;SDS011;43102;52.014;-0.680;2023-07-02T04:45:04;18.90;;;9.20;;
57249;SDS011;43102;52.014;-0.680;2023-07-02T04:46:01;18.90;;;9.20;;
57249;SDS011;43102;52.014;-0.680;2023-07-02T04:47:01;18.90;;;9.20;;
57249;SDS011;43102;52.014;-0.680;2023-07-02T04:48:00;18.90;;;9.20;;
57249;SDS011;43102;52.014;-0.680;2023-07-02T04:49:00;18.90;;;9.20;;
57249;SDS011;43102;52.014;-0.680;2023-07-02T04:50:01;18.90;;;9.20;;
57249;SDS011;43102;52.014;-0.680;2023-07-02T04:51:00;18.90;;;9.20;;
57249;SDS011;43102;52.014;-0.680;2023-07-02T04:52:00;18.90;;;9.20;;
57249;SDS011;43102;52.014;-0.680;2023-07-02T04:53:00;19.70;;;9.20;;
57249;SDS011;43102;52.014;-0.680;2023-07-02T04:54:00;19.70;;;9.20;;
57249;SDS011;43102;52.014;-0.680;2023-07-02T04:55:02;19.70;;;9.20;;
57249;SDS011;43102;52.014;-0.680;2023-07-02T04:56:01;19.70;;;9.20;;
57249;SDS011;43102;52.014;-0.680;2023-07-02T04:57:00;19.70;;;9.20;;
57249;SDS011;43102;52.014;-0.680;2023-07-02T04:58:00;19.70;;;9.20;;
57249;SDS011;43102;52.014;-0.680;2023-07-02T04:59:00;19.70;;;9.20;;
57249;SDS011;43102;52.014;-0.680;2023-07-02T05:00:01;19.70;;;9.20;;
57249;SDS011;43102;52.014;-0.680;2023-07-02T05:01:00;19.70;;;9.20;;
57249;SDS011;43102;52.014;-0.680;2023-07-02T05:02:00;19.70;;;9.20;;
57249;SDS011;43102;52.014;-0.680;2023-07-02T05:03:00;19.70;;;9.20;;
57249;SDS011;43102;52.014;-0.680;2023-07-02T05:04:01;19.70;;;9.20;;
57249;SDS011;43102;52.014;-0.680;2023-07-02T05:05:01;19.70;;;9.20;;
57249;SDS011;43102;52.014;-0.680;2023-07-02T05:06:00;19.70;;;9.20;;
57249;SDS011;43102;52.014;-0.680;2023-07-02T05:07:00;19.70;;;9.20;;
57249;SDS011;43102;52.014;-0.680;2023-07-02T05:08:00;19.70;;;9.20;;
57249;SDS011;43102;52.014;-0.680;2023-07-02T05:09:00;19.70;;;9.20;;
57249;SDS011;43102;52.014;-0.680;2023-07-02T05:10:00;19.70;;;9.20;;
57249;SDS011;43102;52.014;-0.680;2023-07-02T05:11:00;19.70;;;9.20;;
57249;SDS011;43102;52.014;-0.680;2023-07-02T05:12:00;19.70;;;9.20;;
57249;SDS011;43102;52.014;-0.680;2023-07-02T05:13:00;19.70;;;9.20;;
57249;SDS011;43102;52.014;-0.680;2023-07-02T05:14:00;19.70;;;9.20;;
57249;SDS011;43102;52.014;-0.680;2023-07-02T05:15:00;19.70;;;9.20;;
57249;SDS011;43102;52.014;-0.680;2023-07-02T05:16:00;19.70;;;9.20;;
57249;SDS011;43102;52.014;-0.680;2023-07-02T05:17:00;19.70;;;9.20;;
57249;SDS011;43102;52.014;-0.680;2023-07-02T05:18:01;19.70;;;9.20;;
57249;SDS011;43102;52.014;-0.680;2023-07-02T05:19:00;19.70;;;9.20;;
57249;SDS011;43102;52.014;-0.680;2023-07-02T05:20:02;19.70;;;9.20;;
57249;SDS011;43102;52.014;-0.680;2023-07-02T05:21:00;19.70;;;9.20;;
57249;SDS011;43102;52.014;-0.680;2023-07-02T05:22:00;19.70;;;9.20;;
57249;SDS011;43102;52.014;-0.680;2023-07-02T05:23:00;18.30;;;9.20;;
57249;SDS011;43102;52.014;-0.680;2023-07-02T05:24:00;18.30;;;9.20;;
57249;SDS011;43102;52.014;-0.680;2023-07-02T05:25:00;18.30;;;9.20;;
57249;SDS011;43102;52.014;-0.680;2023-07-02T05:26:01;18.30;;;9.20;;
57249;SDS011;43102;52.014;-0.680;2023-07-02T05:27:00;18.30;;;9.20;;
57249;SDS011;43102;52.014;-0.680;2023-07-02T05:28:00;18.30;;;9.20;;
57249;SDS011;43102;52.014;-0.680;2023-07-02T05:29:01;18.30;;;9.20;;
57249;SDS011;43102;52.014;-0.680;2023-07-02T05:30:00;18.30;;;9.20;;
57249;SDS011;43102;52.014;-0.680;2023-07-02T05:31:01;18.30;;;9.20;;
57249;SDS011;43102;52.014;-0.680;2023-07-02T05:32:00;18.30;;;9.20;;
57249;SDS011;43102;52.014;-0.680;2023-07-02T05:33:00;18.30;;;9.20;;
57249;SDS011;43102;52.014;-0.680;2023-07-02T05:34:00;18.30;;;9.20;;
57249;SDS011;43102;52.014;-0.680;2023-07-02T05:35:00;18.30;;;9.20;;
57249;SDS011;43102;52.014;-0.680;2023-07-02T05:36:01;18.30;;;9.20;;
57249;SDS011;43102;52.014;-0.680;2023-07-02T05:37:01;18.30;;;9.20;;
57249;SDS011;43102;52.014;-0.680;2023-07-02T05:38:00;18.30;;;9.20;;
57249;SDS011;43102;52.014;-0.680;2023-07-02T05:39:00;18.30;;;9.20;;
57249;SDS011;43102;52.014;-0.680;2023-07-02T05:40:00;18.30;;;9.20;;
57249;SDS011;43102;52.014;-0.680;2023-07-02T05:41:01;18.30;;;9.20;;
57249;SDS011;43102;52.014;-0.680;2023-07-02T05:42:00;18.30;;;9.20;;
57249;SDS011;43102;52.014;-0.680;2023-07-02T05:43:00;18.30;;;9.20;;
57249;SDS011;43102;52.014;-0.680;2023-07-02T05:44:00;18.30;;;9.20;;
57249;SDS011;43102;52.014;-0.680;2023-07-02T05:45:00;18.30;;;9.20;;
57249;SDS011;43102;52.014;-0.680;2023-07-02T05:46:00;18.30;;;9.20;;
57249;SDS011;43102;52.014;-0.680;2023-07-02T05:47:00;18.30;;;9.20;;
57249;SDS011;43102;52.014;-0.680;2023-07-02T05:48:01;18.30;;;9.20;;